createdAt,value
2023-04-19T00:01:49.415Z,9.33
2023-04-19T00:03:52.926Z,9.07
2023-04-19T00:05:58.982Z,8.10
2023-04-19T00:08:03.251Z,8.33
2023-04-19T00:10:10.160Z,8.77
2023-04-19T00:12:17.253Z,8.80
2023-04-19T00:14:20.194Z,8.27
2023-04-19T00:16:24.448Z,8.87
2023-04-19T00:18:31.448Z,7.83
2023-04-19T00:20:34.568Z,9.60
2023-04-19T00:22:38.827Z,9.13
2023-04-19T00:24:45.787Z,9.00
2023-04-19T00:26:50.910Z,8.30
2023-04-19T00:28:53.715Z,8.80
2023-04-19T00:30:58.987Z,8.63
2023-04-19T00:33:01.984Z,8.83
2023-04-19T00:35:07.116Z,8.73
2023-04-19T00:37:11.026Z,8.40
2023-04-19T00:39:16.295Z,10.47
2023-04-19T00:41:21.395Z,8.10
2023-04-19T00:43:25.983Z,8.63
2023-04-19T00:45:28.970Z,8.40
2023-04-19T00:47:32.088Z,9.17
2023-04-19T00:49:35.069Z,8.53
2023-04-19T00:51:39.851Z,9.00
2023-04-19T00:53:48.991Z,8.80
2023-04-19T00:55:58.448Z,9.23
2023-04-19T00:58:02.454Z,8.10
2023-04-19T01:00:08.280Z,8.63
2023-04-19T01:02:11.379Z,8.87
2023-04-19T01:04:17.000Z,8.23
2023-04-19T01:06:23.428Z,8.50
2023-04-19T01:08:27.787Z,8.57
2023-04-19T01:10:31.221Z,8.90
2023-04-19T01:12:34.125Z,8.97
2023-04-19T01:14:37.038Z,9.57
2023-04-19T01:16:40.201Z,9.03
2023-04-19T01:18:43.123Z,8.70
2023-04-19T01:20:46.139Z,8.77
2023-04-19T01:22:50.513Z,8.43
2023-04-19T01:24:53.369Z,8.27
2023-04-19T01:26:58.123Z,9.17
2023-04-19T01:29:01.299Z,8.03
2023-04-19T01:31:04.350Z,8.20
2023-04-19T01:33:09.043Z,8.00
2023-04-19T01:35:14.265Z,8.67
2023-04-19T01:37:20.676Z,8.07
2023-04-19T01:39:27.280Z,7.70
2023-04-19T01:41:33.430Z,8.87
2023-04-19T01:43:36.720Z,9.37
2023-04-19T01:45:42.393Z,8.00
2023-04-19T01:47:45.384Z,8.50
2023-04-19T01:49:48.569Z,8.17
2023-04-19T01:51:52.167Z,7.70
2023-04-19T01:53:58.126Z,8.07
2023-04-19T01:56:02.422Z,7.97
2023-04-19T01:58:05.378Z,7.63
2023-04-19T02:00:12.038Z,8.03
2023-04-19T02:02:17.836Z,7.90
2023-04-19T02:04:21.937Z,8.13
2023-04-19T02:06:24.898Z,8.27
2023-04-19T02:08:28.139Z,7.90
2023-04-19T02:10:33.105Z,7.60
2023-04-19T02:12:37.829Z,7.80
2023-04-19T02:14:43.670Z,7.33
2023-04-19T02:16:46.521Z,7.23
2023-04-19T02:18:49.498Z,7.53
2023-04-19T02:20:54.363Z,7.27
2023-04-19T02:22:58.324Z,7.50
2023-04-19T02:25:01.429Z,7.17
2023-04-19T02:27:07.010Z,7.33
2023-04-19T02:29:12.302Z,7.67
2023-04-19T02:31:15.610Z,7.20
2023-04-19T02:33:18.879Z,7.60
2023-04-19T02:35:21.966Z,7.20
2023-04-19T02:37:27.160Z,7.63
2023-04-19T02:39:34.251Z,8.30
2023-04-19T02:41:40.142Z,6.93
2023-04-19T02:43:43.021Z,7.53
2023-04-19T02:45:55.410Z,6.73
2023-04-19T02:47:59.575Z,7.70
2023-04-19T02:50:04.072Z,7.80
2023-04-19T02:52:10.907Z,7.10
2023-04-19T02:54:17.433Z,6.90
2023-04-19T02:56:21.341Z,6.23
2023-04-19T02:58:27.472Z,6.93
2023-04-19T03:00:38.305Z,7.13
2023-04-19T03:02:50.504Z,7.77
2023-04-19T03:04:54.649Z,7.60
2023-04-19T03:06:57.539Z,7.60
2023-04-19T03:09:02.763Z,7.13
2023-04-19T03:11:07.662Z,7.23
2023-04-19T03:13:11.869Z,6.97
2023-04-19T03:15:16.380Z,7.43
2023-04-19T03:17:19.343Z,6.73
2023-04-19T03:19:24.482Z,6.90
2023-04-19T03:21:29.190Z,6.33
2023-04-19T03:23:32.594Z,6.83
2023-04-19T03:25:37.278Z,7.37
2023-04-19T03:27:54.345Z,7.03
2023-04-19T03:30:12.670Z,6.23
2023-04-19T03:32:16.314Z,6.90
2023-04-19T03:34:20.697Z,6.67
2023-04-19T03:36:27.094Z,6.63
2023-04-19T03:38:30.696Z,7.47
2023-04-19T03:40:39.483Z,6.80
2023-04-19T03:42:44.884Z,7.20
2023-04-19T03:44:53.844Z,6.20
2023-04-19T03:46:57.758Z,7.97
2023-04-19T03:49:04.196Z,7.37
2023-04-19T03:51:10.263Z,6.50
2023-04-19T03:53:15.011Z,6.77
2023-04-19T03:55:18.280Z,5.90
2023-04-19T03:57:22.355Z,6.33
2023-04-19T03:59:28.368Z,6.27
2023-04-19T04:01:32.566Z,5.97
2023-04-19T04:03:38.989Z,6.60
2023-04-19T04:05:43.172Z,6.33
2023-04-19T04:07:46.824Z,6.27
2023-04-19T04:09:51.925Z,6.03
2023-04-19T04:11:54.964Z,6.13
2023-04-19T04:13:58.307Z,5.87
2023-04-19T04:16:07.074Z,6.70
2023-04-19T04:18:10.818Z,6.70
2023-04-19T04:20:16.577Z,5.63
2023-04-19T04:22:20.834Z,5.93
2023-04-19T04:24:24.024Z,5.90
2023-04-19T04:26:52.112Z,6.00
2023-04-19T04:28:58.670Z,6.27
2023-04-19T04:31:01.778Z,5.87
2023-04-19T04:33:08.547Z,6.10
2023-04-19T04:35:15.406Z,6.27
2023-04-19T04:37:26.752Z,6.43
2023-04-19T04:39:30.122Z,5.67
2023-04-19T04:41:33.208Z,6.17
2023-04-19T04:43:41.159Z,5.70
2023-04-19T04:45:44.351Z,6.20
2023-04-19T04:47:47.933Z,6.53
2023-04-19T04:49:55.530Z,5.53
2023-04-19T04:51:59.761Z,6.90
2023-04-19T04:54:06.526Z,6.10
2023-04-19T04:56:10.436Z,6.27
2023-04-19T04:58:13.291Z,6.10
2023-04-19T05:00:48.768Z,6.40
2023-04-19T05:02:52.266Z,5.97
2023-04-19T05:04:56.925Z,6.47
2023-04-19T05:06:59.796Z,5.97
2023-04-19T05:09:05.446Z,5.40
2023-04-19T05:11:12.610Z,5.67
2023-04-19T05:13:15.955Z,6.23
2023-04-19T05:15:19.453Z,6.43
2023-04-19T05:17:28.995Z,5.83
2023-04-19T05:19:32.584Z,6.00
2023-04-19T05:21:41.089Z,6.10
2023-04-19T05:23:45.682Z,6.60
2023-04-19T05:25:56.420Z,6.53
2023-04-19T05:28:07.047Z,5.60
2023-04-19T05:30:22.158Z,6.30
2023-04-19T05:32:29.814Z,5.90
2023-04-19T05:34:35.321Z,6.97
2023-04-19T05:36:43.962Z,6.60
2023-04-19T05:38:46.854Z,7.03
2023-04-19T05:40:49.871Z,8.03
2023-04-19T05:42:56.152Z,6.17
2023-04-19T05:44:59.093Z,6.63
2023-04-19T05:47:02.072Z,6.47
2023-04-19T05:49:30.240Z,6.60
2023-04-19T05:51:43.305Z,6.17
2023-04-19T05:53:51.159Z,7.27
2023-04-19T05:55:55.534Z,6.77
2023-04-19T05:57:59.107Z,6.17
2023-04-19T06:00:07.670Z,6.90
2023-04-19T06:02:16.886Z,7.33
2023-04-19T06:04:25.029Z,7.23
2023-04-19T06:06:29.692Z,7.00
2023-04-19T06:08:32.692Z,7.70
2023-04-19T06:10:48.774Z,7.53
2023-04-19T06:12:56.502Z,7.37
2023-04-19T06:14:59.512Z,7.97
2023-04-19T06:17:02.949Z,8.33
2023-04-19T06:19:06.244Z,8.00
2023-04-19T06:21:12.116Z,9.47
2023-04-19T06:23:18.812Z,8.23
2023-04-19T06:25:21.975Z,10.00
2023-04-19T06:27:25.000Z,9.87
2023-04-19T06:29:33.338Z,8.57
2023-04-19T06:31:36.322Z,9.03
2023-04-19T06:33:39.282Z,9.33
2023-04-19T06:35:42.124Z,9.30
2023-04-19T06:37:47.713Z,9.60
2023-04-19T06:39:52.034Z,9.40
2023-04-19T06:41:56.463Z,9.03
2023-04-19T06:43:59.352Z,10.00
2023-04-19T06:46:03.113Z,9.60
2023-04-19T06:48:08.770Z,10.33
2023-04-19T06:50:12.358Z,10.60
2023-04-19T06:52:17.342Z,9.80
2023-04-19T06:54:20.483Z,12.10
2023-04-19T06:56:46.540Z,11.00
2023-04-19T06:58:49.487Z,10.23
2023-04-19T07:00:53.133Z,10.77
2023-04-19T07:02:56.426Z,11.57
2023-04-19T07:05:01.409Z,10.37
2023-04-19T07:07:04.665Z,9.60
2023-04-19T07:09:10.540Z,9.60
2023-04-19T07:11:16.609Z,9.67
2023-04-19T07:13:21.043Z,10.90
2023-04-19T07:15:26.665Z,10.57
2023-04-19T07:17:29.565Z,10.20
2023-04-19T07:19:33.019Z,10.97
2023-04-19T07:21:35.954Z,10.33
2023-04-19T07:23:41.059Z,9.83
2023-04-19T07:25:44.029Z,11.47
2023-04-19T07:27:47.338Z,10.40
2023-04-19T07:29:51.723Z,9.90
2023-04-19T07:31:57.049Z,12.90
2023-04-19T07:34:00.114Z,10.00
2023-04-19T07:36:03.043Z,10.83
2023-04-19T07:38:06.150Z,11.03
2023-04-19T07:40:10.193Z,10.43
2023-04-19T07:42:13.093Z,11.63
2023-04-19T07:44:16.460Z,11.40
2023-04-19T07:46:20.969Z,11.70
2023-04-19T07:48:23.911Z,10.17
2023-04-19T07:50:29.449Z,11.13
2023-04-19T07:52:36.528Z,11.03
2023-04-19T07:54:40.141Z,10.00
2023-04-19T07:56:43.140Z,11.10
2023-04-19T07:58:50.803Z,10.47
2023-04-19T08:00:59.792Z,10.77
2023-04-19T08:03:04.924Z,10.60
2023-04-19T08:05:09.142Z,10.57
2023-04-19T08:07:15.068Z,10.30
2023-04-19T08:09:18.279Z,11.03
2023-04-19T08:11:23.450Z,10.70
2023-04-19T08:13:27.600Z,10.33
2023-04-19T08:17:41.791Z,9.83
2023-04-19T08:19:49.459Z,10.30
2023-04-19T08:21:52.266Z,10.00
2023-04-19T08:23:55.133Z,9.00
2023-04-19T08:25:58.052Z,9.93
2023-04-19T08:28:00.928Z,9.17
2023-04-19T08:30:04.301Z,9.57
2023-04-19T08:32:07.600Z,9.90
2023-04-19T08:34:10.509Z,9.07
2023-04-19T08:36:17.148Z,10.57
2023-04-19T08:38:25.035Z,9.77
2023-04-19T08:40:27.907Z,9.10
2023-04-19T08:42:36.745Z,8.83
2023-04-19T08:44:54.280Z,9.87
2023-04-19T08:47:02.424Z,9.90
2023-04-19T08:49:07.132Z,9.57
2023-04-19T08:51:11.830Z,8.80
2023-04-19T08:53:25.427Z,9.30
2023-04-19T08:55:29.916Z,10.07
2023-04-19T08:57:33.077Z,9.63
2023-04-19T08:59:36.348Z,8.87
2023-04-19T09:01:40.045Z,9.30
2023-04-19T09:04:00.534Z,9.50
2023-04-19T09:06:09.253Z,9.47
2023-04-19T09:08:31.572Z,9.93
2023-04-19T09:10:34.652Z,9.60
2023-04-19T09:12:40.590Z,8.83
2023-04-19T09:17:17.085Z,8.60
2023-04-19T09:19:24.683Z,8.87
2023-04-19T09:21:32.319Z,8.97
2023-04-19T09:23:48.051Z,7.83
2023-04-19T09:26:19.317Z,8.23
2023-04-19T09:28:20.437Z,7.77
2023-04-19T09:30:32.323Z,8.37
2023-04-19T09:32:48.265Z,7.30
2023-04-19T09:34:56.834Z,7.57
2023-04-19T09:37:17.922Z,7.17
2023-04-19T09:39:32.905Z,9.33
2023-04-19T09:41:38.978Z,7.53
2023-04-19T09:43:58.895Z,8.03
2023-04-19T09:46:05.404Z,7.63
2023-04-19T09:48:09.109Z,7.50
2023-04-19T09:52:22.726Z,6.93
2023-04-19T09:54:27.408Z,6.97
2023-04-19T09:56:37.358Z,7.10
2023-04-19T09:58:49.538Z,7.10
2023-04-19T10:01:06.617Z,7.40
2023-04-19T10:03:18.851Z,6.37
2023-04-19T10:05:24.268Z,6.20
2023-04-19T10:07:31.009Z,6.90
2023-04-19T10:09:51.644Z,7.10
2023-04-19T10:12:06.631Z,6.63
2023-04-19T10:14:27.626Z,6.47
2023-04-19T10:16:33.752Z,5.63
2023-04-19T10:18:37.440Z,6.20
2023-04-19T10:20:52.533Z,6.13
2023-04-19T10:22:55.715Z,5.50
2023-04-19T10:25:12.959Z,5.30
2023-04-19T10:27:17.728Z,6.03
2023-04-19T10:30:02.743Z,5.43
2023-04-19T10:32:06.194Z,5.07
2023-04-19T10:34:09.251Z,4.73
2023-04-19T10:36:15.699Z,4.97
2023-04-19T10:38:19.613Z,5.13
2023-04-19T10:40:59.022Z,7.37
2023-04-19T10:43:18.117Z,5.90
2023-04-19T10:45:35.172Z,5.33
2023-04-19T10:47:45.643Z,5.10
2023-04-19T10:49:48.547Z,5.13
2023-04-19T10:51:53.095Z,5.90
2023-04-19T10:54:00.507Z,4.77
2023-04-19T10:56:03.520Z,5.40
2023-04-19T10:58:07.566Z,5.73
2023-04-19T11:00:20.818Z,5.63
2023-04-19T11:02:33.169Z,6.53
2023-04-19T11:05:05.441Z,5.27
2023-04-19T11:07:10.696Z,5.83
2023-04-19T11:09:22.360Z,4.70
2023-04-19T11:11:27.804Z,5.40
2023-04-19T11:13:33.021Z,4.60
2023-04-19T11:15:44.294Z,4.87
2023-04-19T11:18:00.809Z,5.07
2023-04-19T11:20:10.745Z,4.87
2023-04-19T11:22:13.764Z,5.50
2023-04-19T11:24:20.705Z,4.77
2023-04-19T11:26:24.952Z,4.50
2023-04-19T11:28:30.403Z,4.73
2023-04-19T11:30:33.874Z,4.80
2023-04-19T11:32:48.835Z,6.60
2023-04-19T11:34:53.209Z,6.87
2023-04-19T11:36:56.209Z,5.27
2023-04-19T11:38:59.538Z,5.60
2023-04-19T11:41:03.408Z,5.80
2023-04-19T11:43:06.260Z,5.87
2023-04-19T11:45:26.169Z,6.20
2023-04-19T11:47:33.819Z,6.07
2023-04-19T11:49:36.958Z,6.23
2023-04-19T11:51:44.697Z,7.17
2023-04-19T11:53:48.707Z,6.73
2023-04-19T11:55:52.862Z,6.53
2023-04-19T11:57:56.432Z,7.43
2023-04-19T12:00:13.093Z,7.53
2023-04-19T12:02:19.265Z,7.33
2023-04-19T12:04:23.214Z,6.20
2023-04-19T12:06:28.604Z,6.80
2023-04-19T12:08:37.298Z,7.00
2023-04-19T12:10:40.824Z,6.47
2023-04-19T12:12:46.560Z,6.67
2023-04-19T12:14:54.918Z,6.40
2023-04-19T12:17:11.758Z,6.57
2023-04-19T12:19:18.991Z,6.40
2023-04-19T12:21:28.877Z,6.37
2023-04-19T12:23:33.172Z,6.47
2023-04-19T12:25:38.065Z,6.87
2023-04-19T12:27:41.949Z,5.27
2023-04-19T12:29:45.974Z,6.57
2023-04-19T12:31:49.001Z,6.00
2023-04-19T12:33:52.077Z,6.53
2023-04-19T12:35:54.916Z,6.50
2023-04-19T12:38:01.010Z,6.00
2023-04-19T12:40:06.504Z,5.40
2023-04-19T12:42:09.425Z,5.60
2023-04-19T12:44:12.330Z,6.90
2023-04-19T12:46:17.336Z,5.90
2023-04-19T12:48:23.878Z,6.57
2023-04-19T12:50:36.140Z,5.40
2023-04-19T12:52:39.125Z,5.63
2023-04-19T12:54:42.078Z,6.63
2023-04-19T12:56:46.421Z,6.13
2023-04-19T12:58:52.991Z,6.20
2023-04-19T13:00:57.850Z,7.43
2023-04-19T13:03:00.991Z,6.47
2023-04-19T13:05:06.325Z,6.67
2023-04-19T13:07:09.264Z,6.80
2023-04-19T13:09:14.878Z,7.20
2023-04-19T13:11:23.120Z,6.33
2023-04-19T13:13:30.407Z,6.47
2023-04-19T13:15:35.501Z,7.70
2023-04-19T13:17:38.603Z,6.03
2023-04-19T13:19:41.480Z,7.27
2023-04-19T13:21:44.378Z,6.57
2023-04-19T13:23:47.256Z,6.20
2023-04-19T13:25:50.087Z,5.67
2023-04-19T13:27:53.034Z,5.70
2023-04-19T13:29:59.599Z,6.70
2023-04-19T13:32:02.500Z,5.40
2023-04-19T13:34:07.719Z,5.83
2023-04-19T13:36:11.000Z,5.90
2023-04-19T13:38:17.472Z,6.80
2023-04-19T13:40:20.504Z,5.70
2023-04-19T13:42:23.694Z,5.70
2023-04-19T13:44:26.724Z,6.33
2023-04-19T13:46:31.167Z,5.37
2023-04-19T13:48:34.234Z,5.17
2023-04-19T13:50:37.483Z,4.73
2023-04-19T13:52:40.483Z,4.03
2023-04-19T13:54:46.351Z,4.77
2023-04-19T13:56:52.613Z,6.13
2023-04-19T13:58:55.574Z,3.93
2023-04-19T14:00:58.494Z,4.93
2023-04-19T14:03:05.602Z,4.47
2023-04-19T14:05:11.761Z,4.30
2023-04-19T14:07:17.336Z,3.80
2023-04-19T14:09:20.322Z,4.30
2023-04-19T14:11:23.713Z,3.47
2023-04-19T14:13:26.835Z,3.43
2023-04-19T14:15:29.957Z,3.90
2023-04-19T14:17:35.827Z,3.83
2023-04-19T14:19:42.054Z,3.40
2023-04-19T14:21:45.013Z,2.80
2023-04-19T14:23:47.952Z,3.33
2023-04-19T14:25:52.485Z,5.23
2023-04-19T14:27:56.642Z,3.33
2023-04-19T14:29:59.598Z,3.20
2023-04-19T14:32:16.652Z,3.17
2023-04-19T14:34:27.690Z,3.00
2023-04-19T14:36:32.288Z,3.20
2023-04-19T14:38:39.341Z,4.43
2023-04-19T14:40:42.295Z,3.40
2023-04-19T14:42:47.273Z,3.37
2023-04-19T14:44:52.165Z,3.10
2023-04-19T14:46:57.320Z,4.00
2023-04-19T14:49:03.903Z,6.53
2023-04-19T14:51:08.721Z,3.33
2023-04-19T14:53:18.039Z,3.53
2023-04-19T14:55:23.509Z,2.43
2023-04-19T14:57:26.943Z,2.97
2023-04-19T14:59:30.222Z,3.20
2023-04-19T15:01:33.218Z,2.87
2023-04-19T15:03:36.438Z,2.73
2023-04-19T15:05:39.768Z,2.37
2023-04-19T15:07:42.871Z,2.40
2023-04-19T15:09:49.521Z,4.40
2023-04-19T15:11:52.561Z,3.37
2023-04-19T15:13:55.991Z,3.23
2023-04-19T15:16:03.031Z,2.27
2023-04-19T15:18:07.598Z,2.90
2023-04-19T15:20:11.175Z,2.87
2023-04-19T15:22:14.072Z,2.70
2023-04-19T15:24:17.368Z,2.53
2023-04-19T15:26:21.699Z,2.77
2023-04-19T15:28:25.884Z,2.80
2023-04-19T15:30:29.320Z,3.13
2023-04-19T15:32:34.206Z,3.33
2023-04-19T15:34:39.328Z,3.63
2023-04-19T15:36:45.472Z,2.67
2023-04-19T15:38:48.412Z,2.80
2023-04-19T15:40:51.381Z,2.63
2023-04-19T15:42:56.350Z,4.10
2023-04-19T15:45:01.098Z,2.67
2023-04-19T15:47:04.065Z,3.03
2023-04-19T15:49:07.071Z,2.30
2023-04-19T15:51:11.667Z,2.20
2023-04-19T15:53:14.924Z,3.83
2023-04-19T15:55:18.132Z,2.07
2023-04-19T15:57:21.078Z,3.63
2023-04-19T15:59:25.816Z,2.00
2023-04-19T16:01:31.273Z,2.53
2023-04-19T16:03:36.765Z,2.23
2023-04-19T16:05:40.020Z,2.43
2023-04-19T16:07:44.047Z,2.53
2023-04-19T16:09:47.104Z,2.50
2023-04-19T16:11:51.061Z,2.20
2023-04-19T16:13:54.027Z,2.70
2023-04-19T16:16:01.062Z,2.43
2023-04-19T16:18:04.149Z,3.27
2023-04-19T16:20:08.863Z,2.10
2023-04-19T16:22:12.051Z,2.80
2023-04-19T16:24:15.079Z,2.50
2023-04-19T16:26:19.352Z,2.17
2023-04-19T16:28:22.581Z,2.27
2023-04-19T16:30:26.740Z,2.20
2023-04-19T16:32:31.309Z,2.33
2023-04-19T16:34:34.637Z,1.90
2023-04-19T16:36:37.846Z,3.13
2023-04-19T16:38:40.884Z,3.47
2023-04-19T16:40:47.551Z,3.30
2023-04-19T16:42:50.499Z,2.83
2023-04-19T16:44:55.437Z,2.40
2023-04-19T16:46:58.374Z,2.07
2023-04-19T16:49:02.716Z,1.80
2023-04-19T16:51:08.095Z,2.17
2023-04-19T16:53:12.813Z,2.47
2023-04-19T16:55:16.219Z,1.90
2023-04-19T16:57:19.324Z,1.90
2023-04-19T16:59:22.227Z,1.87
2023-04-19T17:01:25.478Z,2.63
2023-04-19T17:03:30.329Z,2.33
2023-04-19T17:05:34.804Z,2.70
2023-04-19T17:07:41.915Z,2.43
2023-04-19T17:09:44.896Z,2.87
2023-04-19T17:11:49.413Z,2.10
2023-04-19T17:13:54.175Z,3.27
2023-04-19T17:15:59.032Z,1.80
2023-04-19T17:18:02.212Z,1.83
2023-04-19T17:20:16.353Z,2.80
2023-04-19T17:22:23.135Z,2.20
2023-04-19T17:24:26.071Z,2.40
2023-04-19T17:26:29.517Z,3.57
2023-04-19T17:28:32.618Z,2.60
2023-04-19T17:30:35.561Z,2.13
2023-04-19T17:32:38.562Z,2.63
2023-04-19T17:34:43.682Z,2.00
2023-04-19T17:36:47.373Z,2.60
2023-04-19T17:38:51.735Z,2.17
2023-04-19T17:40:58.355Z,1.80
2023-04-19T17:43:02.530Z,2.13
2023-04-19T17:45:10.930Z,2.70
2023-04-19T17:47:16.965Z,2.73
2023-04-19T17:49:21.139Z,2.47
2023-04-19T17:51:24.242Z,2.53
2023-04-19T17:53:29.407Z,2.23
2023-04-19T17:55:33.799Z,2.23
2023-04-19T17:57:36.719Z,3.43
2023-04-19T17:59:39.583Z,2.83
2023-04-19T18:01:46.234Z,2.70
2023-04-19T18:03:49.240Z,2.77
2023-04-19T18:05:52.674Z,2.93
2023-04-19T18:07:55.673Z,2.30
2023-04-19T18:10:04.565Z,2.40
2023-04-19T18:12:09.712Z,2.43
2023-04-19T18:14:12.650Z,3.80
2023-04-19T18:16:17.196Z,2.37
2023-04-19T18:18:22.693Z,3.37
2023-04-19T18:20:27.604Z,2.13
2023-04-19T18:22:30.612Z,2.03
2023-04-19T18:24:33.853Z,2.20
2023-04-19T18:26:40.994Z,2.20
2023-04-19T18:28:45.312Z,1.87
2023-04-19T18:30:48.368Z,2.00
2023-04-19T18:32:53.696Z,2.33
2023-04-19T18:34:56.614Z,1.80
2023-04-19T18:37:01.055Z,1.63
2023-04-19T18:39:04.024Z,2.20
2023-04-19T18:41:07.296Z,2.03
2023-04-19T18:43:10.744Z,2.00
2023-04-19T18:45:17.276Z,2.17
2023-04-19T18:47:20.598Z,3.17
2023-04-19T18:49:23.447Z,2.57
2023-04-19T18:51:27.470Z,2.10
2023-04-19T18:53:32.977Z,2.53
2023-04-19T18:55:35.953Z,2.50
2023-04-19T18:57:39.889Z,2.00
2023-04-19T18:59:45.751Z,1.90
2023-04-19T19:01:56.619Z,2.30
2023-04-19T19:06:13.016Z,2.50
2023-04-19T19:08:21.035Z,2.53
2023-04-19T19:12:29.713Z,2.27
2023-04-19T19:14:37.076Z,2.27
2023-04-19T19:16:51.321Z,3.30
2023-04-19T19:18:56.496Z,3.80
2023-04-19T19:21:00.458Z,2.13
2023-04-19T19:23:03.389Z,3.13
2023-04-19T19:25:07.170Z,2.77
2023-04-19T19:27:10.100Z,2.20
2023-04-19T19:29:16.356Z,2.37
2023-04-19T19:31:22.385Z,2.20
2023-04-19T19:33:28.750Z,3.13
2023-04-19T19:35:33.418Z,3.77
2023-04-19T19:37:37.198Z,3.07
2023-04-19T19:39:43.132Z,3.10
2023-04-19T19:42:05.241Z,2.87
2023-04-19T19:44:10.450Z,2.30
2023-04-19T19:46:13.933Z,2.70
2023-04-19T19:48:17.538Z,2.57
2023-04-19T19:52:29.990Z,3.03
2023-04-19T19:54:32.854Z,3.03
2023-04-19T19:56:35.895Z,3.20
2023-04-19T19:58:48.431Z,3.10
2023-04-19T20:00:55.550Z,3.20
2023-04-19T20:02:59.769Z,3.27
2023-04-19T20:05:03.415Z,2.43
2023-04-19T20:09:15.020Z,2.77
2023-04-19T20:11:20.623Z,2.50
2023-04-19T20:13:26.214Z,2.93
2023-04-19T20:15:32.245Z,2.60
2023-04-19T20:17:39.033Z,3.07
2023-04-19T20:19:46.176Z,2.93
2023-04-19T20:21:51.333Z,2.80
2023-04-19T20:23:54.953Z,2.80
2023-04-19T20:25:59.776Z,3.40
2023-04-19T20:28:04.925Z,2.60
2023-04-19T20:30:10.274Z,3.10
2023-04-19T20:32:13.193Z,3.53
2023-04-19T20:34:18.506Z,3.03
2023-04-19T20:36:24.655Z,2.83
2023-04-19T20:38:27.603Z,2.83
2023-04-19T20:40:31.814Z,3.13
2023-04-19T20:42:36.244Z,2.47
2023-04-19T20:44:42.965Z,3.03
2023-04-19T20:46:48.709Z,3.03
2023-04-19T20:48:51.840Z,2.50
2023-04-19T20:50:54.801Z,2.70
2023-04-19T20:52:58.084Z,2.20
2023-04-19T20:55:06.904Z,2.80
2023-04-19T20:57:09.887Z,3.60
2023-04-19T20:59:16.460Z,3.27
2023-04-19T21:01:20.735Z,3.07
2023-04-19T21:03:25.662Z,2.70
2023-04-19T21:05:29.632Z,4.63
2023-04-19T21:07:35.180Z,3.00
2023-04-19T21:09:38.088Z,3.37
2023-04-19T21:11:40.998Z,4.23
2023-04-19T21:13:43.864Z,3.43
2023-04-19T21:15:50.152Z,3.40
2023-04-19T21:17:53.121Z,2.87
2023-04-19T21:19:56.012Z,4.07
2023-04-19T21:22:10.090Z,3.30
2023-04-19T21:24:16.330Z,2.40
2023-04-19T21:26:19.197Z,3.07
2023-04-19T21:28:22.755Z,3.20
2023-04-19T21:30:43.413Z,4.73
2023-04-19T21:32:47.753Z,2.93
2023-04-19T21:34:50.750Z,3.07
2023-04-19T21:36:57.964Z,2.97
2023-04-19T21:39:01.210Z,3.37
2023-04-19T21:41:07.587Z,2.70
2023-04-19T21:43:10.600Z,3.03
2023-04-19T21:45:15.229Z,4.03
2023-04-19T21:47:18.350Z,3.17
2023-04-19T21:49:23.874Z,3.23
2023-04-19T21:51:27.514Z,2.60
2023-04-19T21:53:33.579Z,2.93
2023-04-19T21:55:38.667Z,2.97
2023-04-19T21:57:41.758Z,4.80
2023-04-19T21:59:44.690Z,3.80
2023-04-19T22:01:49.278Z,3.73
2023-04-19T22:03:57.150Z,2.83
2023-04-19T22:06:04.827Z,2.37
2023-04-19T22:08:09.765Z,3.77
2023-04-19T22:10:13.940Z,2.60
2023-04-19T22:12:16.810Z,3.33
2023-04-19T22:14:19.746Z,2.67
2023-04-19T22:16:28.019Z,3.10
2023-04-19T22:18:31.271Z,4.47
2023-04-19T22:20:34.335Z,3.63
2023-04-19T22:22:40.480Z,2.93
2023-04-19T22:24:56.190Z,2.90
2023-04-19T22:27:01.918Z,2.87
2023-04-19T22:29:05.017Z,2.60
2023-04-19T22:31:07.960Z,4.13
2023-04-19T22:33:11.537Z,3.93
2023-04-19T22:35:14.534Z,2.80
2023-04-19T22:37:17.469Z,2.63
2023-04-19T22:39:26.180Z,2.80
2023-04-19T22:41:29.112Z,2.67
2023-04-19T22:43:32.969Z,3.57
2023-04-19T22:45:35.979Z,3.07
2023-04-19T22:47:38.986Z,2.90
2023-04-19T22:49:43.332Z,3.43
2023-04-19T22:51:47.805Z,2.63
2023-04-19T22:53:52.718Z,4.50
2023-04-19T22:55:57.195Z,3.10
2023-04-19T22:58:00.138Z,4.73
2023-04-19T23:00:05.242Z,2.90
2023-04-19T23:02:09.545Z,3.50
2023-04-19T23:04:16.802Z,2.93
2023-04-19T23:06:22.448Z,2.90
2023-04-19T23:08:29.902Z,3.67
2023-04-19T23:10:32.909Z,4.80
2023-04-19T23:12:40.216Z,3.30
2023-04-19T23:14:48.241Z,3.00
2023-04-19T23:16:54.809Z,3.53
2023-04-19T23:19:01.862Z,2.90
2023-04-19T23:21:05.229Z,3.17
2023-04-19T23:23:09.212Z,3.30
2023-04-19T23:25:12.084Z,2.70
2023-04-19T23:27:17.000Z,4.00
2023-04-19T23:29:21.304Z,2.77
2023-04-19T23:31:24.312Z,2.73
2023-04-19T23:33:27.267Z,4.73
2023-04-19T23:35:30.276Z,3.60
2023-04-19T23:37:33.175Z,3.07
2023-04-19T23:39:36.175Z,2.70
2023-04-19T23:41:39.016Z,3.57
2023-04-19T23:43:43.571Z,2.90
2023-04-19T23:45:49.002Z,2.87
2023-04-19T23:47:51.954Z,3.13
2023-04-19T23:49:56.678Z,3.73
2023-04-19T23:51:59.552Z,3.90
2023-04-19T23:54:02.497Z,2.97
2023-04-19T23:56:06.910Z,3.13
2023-04-19T23:58:09.868Z,2.87
